sensor_id;sensor_type;location;lat;lon;timestamp;P1;durP1;ratioP1;P2;durP2;ratioP2
4835;SDS011;66719;51.226;6.902;2023-09-07T00:01:33;12.10;;;4.50;;
4835;SDS011;66719;51.226;6.902;2023-09-07T00:04:00;11.53;;;4.80;;
4835;SDS011;66719;51.226;6.902;2023-09-07T00:06:27;14.50;;;4.77;;
4835;SDS011;66719;51.226;6.902;2023-09-07T00:08:53;15.20;;;5.20;;
4835;SDS011;66719;51.226;6.902;2023-09-07T00:11:20;17.20;;;4.50;;
4835;SDS011;66719;51.226;6.902;2023-09-07T00:13:47;16.17;;;4.60;;
4835;SDS011;66719;51.226;6.902;2023-09-07T00:16:13;17.87;;;6.07;;
4835;SDS011;66719;51.226;6.902;2023-09-07T00:18:41;17.10;;;5.53;;
4835;SDS011;66719;51.226;6.902;2023-09-07T00:21:07;18.07;;;4.30;;
4835;SDS011;66719;51.226;6.902;2023-09-07T00:23:34;16.10;;;4.50;;
4835;SDS011;66719;51.226;6.902;2023-09-07T00:26:00;12.73;;;4.97;;
4835;SDS011;66719;51.226;6.902;2023-09-07T00:28:27;10.97;;;3.93;;
4835;SDS011;66719;51.226;6.902;2023-09-07T00:30:53;18.13;;;4.87;;
4835;SDS011;66719;51.226;6.902;2023-09-07T00:33:20;18.73;;;5.00;;
4835;SDS011;66719;51.226;6.902;2023-09-07T00:35:46;16.37;;;4.47;;
4835;SDS011;66719;51.226;6.902;2023-09-07T00:38:13;13.20;;;4.40;;
4835;SDS011;66719;51.226;6.902;2023-09-07T00:40:42;13.27;;;4.97;;
4835;SDS011;66719;51.226;6.902;2023-09-07T00:43:10;15.53;;;4.80;;
4835;SDS011;66719;51.226;6.902;2023-09-07T00:45:38;11.63;;;4.53;;
4835;SDS011;66719;51.226;6.902;2023-09-07T00:48:05;11.97;;;4.30;;
4835;SDS011;66719;51.226;6.902;2023-09-07T00:50:32;10.70;;;4.30;;
4835;SDS011;66719;51.226;6.902;2023-09-07T00:52:59;19.03;;;5.60;;
4835;SDS011;66719;51.226;6.902;2023-09-07T00:55:27;12.67;;;4.70;;
4835;SDS011;66719;51.226;6.902;2023-09-07T00:57:54;11.03;;;4.57;;
4835;SDS011;66719;51.226;6.902;2023-09-07T01:00:24;15.67;;;5.00;;
4835;SDS011;66719;51.226;6.902;2023-09-07T01:02:51;13.10;;;3.90;;
4835;SDS011;66719;51.226;6.902;2023-09-07T01:05:18;11.20;;;4.30;;
4835;SDS011;66719;51.226;6.902;2023-09-07T01:07:47;15.40;;;4.40;;
4835;SDS011;66719;51.226;6.902;2023-09-07T01:10:20;12.73;;;4.17;;
4835;SDS011;66719;51.226;6.902;2023-09-07T01:12:48;14.13;;;4.97;;
4835;SDS011;66719;51.226;6.902;2023-09-07T01:15:15;12.80;;;4.20;;
4835;SDS011;66719;51.226;6.902;2023-09-07T01:17:42;12.77;;;4.00;;
4835;SDS011;66719;51.226;6.902;2023-09-07T01:20:10;13.47;;;4.30;;
4835;SDS011;66719;51.226;6.902;2023-09-07T01:22:39;13.63;;;4.30;;
4835;SDS011;66719;51.226;6.902;2023-09-07T01:25:07;14.30;;;4.63;;
4835;SDS011;66719;51.226;6.902;2023-09-07T01:27:34;13.00;;;4.23;;
4835;SDS011;66719;51.226;6.902;2023-09-07T01:30:02;13.90;;;4.03;;
4835;SDS011;66719;51.226;6.902;2023-09-07T01:32:29;14.40;;;4.20;;
4835;SDS011;66719;51.226;6.902;2023-09-07T01:34:57;11.03;;;3.70;;
4835;SDS011;66719;51.226;6.902;2023-09-07T01:37:24;15.53;;;4.27;;
4835;SDS011;66719;51.226;6.902;2023-09-07T01:39:51;13.47;;;4.27;;
4835;SDS011;66719;51.226;6.902;2023-09-07T01:42:17;12.77;;;4.80;;
4835;SDS011;66719;51.226;6.902;2023-09-07T01:44:44;13.20;;;3.83;;
4835;SDS011;66719;51.226;6.902;2023-09-07T01:47:11;12.33;;;4.33;;
4835;SDS011;66719;51.226;6.902;2023-09-07T01:49:38;12.50;;;4.63;;
4835;SDS011;66719;51.226;6.902;2023-09-07T01:52:05;11.23;;;4.33;;
4835;SDS011;66719;51.226;6.902;2023-09-07T01:54:31;14.03;;;4.40;;
4835;SDS011;66719;51.226;6.902;2023-09-07T01:56:58;13.13;;;4.33;;
4835;SDS011;66719;51.226;6.902;2023-09-07T01:59:25;10.97;;;3.80;;
4835;SDS011;66719;51.226;6.902;2023-09-07T02:01:52;11.43;;;3.80;;
4835;SDS011;66719;51.226;6.902;2023-09-07T02:04:18;14.20;;;4.13;;
4835;SDS011;66719;51.226;6.902;2023-09-07T02:06:45;9.90;;;4.13;;
4835;SDS011;66719;51.226;6.902;2023-09-07T02:09:12;18.13;;;4.20;;
4835;SDS011;66719;51.226;6.902;2023-09-07T02:11:38;14.77;;;4.60;;
4835;SDS011;66719;51.226;6.902;2023-09-07T02:14:06;11.70;;;4.37;;
4835;SDS011;66719;51.226;6.902;2023-09-07T02:16:33;12.10;;;4.13;;
4835;SDS011;66719;51.226;6.902;2023-09-07T02:19:03;12.57;;;4.10;;
4835;SDS011;66719;51.226;6.902;2023-09-07T02:21:31;11.50;;;4.17;;
4835;SDS011;66719;51.226;6.902;2023-09-07T02:23:57;13.23;;;4.30;;
4835;SDS011;66719;51.226;6.902;2023-09-07T02:26:24;12.80;;;4.00;;
4835;SDS011;66719;51.226;6.902;2023-09-07T02:28:51;11.57;;;3.90;;
4835;SDS011;66719;51.226;6.902;2023-09-07T02:31:18;10.73;;;3.97;;
4835;SDS011;66719;51.226;6.902;2023-09-07T02:33:44;13.70;;;4.00;;
4835;SDS011;66719;51.226;6.902;2023-09-07T02:36:11;11.40;;;4.00;;
4835;SDS011;66719;51.226;6.902;2023-09-07T02:38:38;12.23;;;4.23;;
4835;SDS011;66719;51.226;6.902;2023-09-07T02:41:04;13.47;;;4.37;;
4835;SDS011;66719;51.226;6.902;2023-09-07T02:43:32;12.00;;;4.20;;
4835;SDS011;66719;51.226;6.902;2023-09-07T02:45:58;10.80;;;4.03;;
4835;SDS011;66719;51.226;6.902;2023-09-07T02:48:25;16.73;;;5.10;;
4835;SDS011;66719;51.226;6.902;2023-09-07T02:50:51;13.47;;;4.27;;
4835;SDS011;66719;51.226;6.902;2023-09-07T02:53:18;10.20;;;3.47;;
4835;SDS011;66719;51.226;6.902;2023-09-07T02:55:45;12.80;;;4.50;;
4835;SDS011;66719;51.226;6.902;2023-09-07T02:58:11;14.33;;;4.70;;
4835;SDS011;66719;51.226;6.902;2023-09-07T03:00:44;11.87;;;3.93;;
4835;SDS011;66719;51.226;6.902;2023-09-07T03:03:11;11.13;;;3.90;;
4835;SDS011;66719;51.226;6.902;2023-09-07T03:05:39;16.93;;;4.30;;
4835;SDS011;66719;51.226;6.902;2023-09-07T03:08:06;16.40;;;4.50;;
4835;SDS011;66719;51.226;6.902;2023-09-07T03:10:37;18.30;;;4.67;;
4835;SDS011;66719;51.226;6.902;2023-09-07T03:13:06;15.83;;;4.40;;
4835;SDS011;66719;51.226;6.902;2023-09-07T03:15:33;15.70;;;4.50;;
4835;SDS011;66719;51.226;6.902;2023-09-07T03:18:00;10.87;;;3.70;;
4835;SDS011;66719;51.226;6.902;2023-09-07T03:20:27;12.60;;;4.40;;
4835;SDS011;66719;51.226;6.902;2023-09-07T03:22:54;15.57;;;4.00;;
4835;SDS011;66719;51.226;6.902;2023-09-07T03:25:20;13.20;;;3.77;;
4835;SDS011;66719;51.226;6.902;2023-09-07T03:27:47;12.00;;;3.97;;
4835;SDS011;66719;51.226;6.902;2023-09-07T03:30:14;20.83;;;4.53;;
4835;SDS011;66719;51.226;6.902;2023-09-07T03:32:40;14.20;;;4.80;;
4835;SDS011;66719;51.226;6.902;2023-09-07T03:35:07;17.13;;;5.80;;
4835;SDS011;66719;51.226;6.902;2023-09-07T03:37:35;13.60;;;4.73;;
4835;SDS011;66719;51.226;6.902;2023-09-07T03:40:03;11.70;;;4.20;;
4835;SDS011;66719;51.226;6.902;2023-09-07T03:42:31;14.00;;;4.83;;
4835;SDS011;66719;51.226;6.902;2023-09-07T03:44:59;16.50;;;4.47;;
4835;SDS011;66719;51.226;6.902;2023-09-07T03:47:25;14.13;;;3.83;;
4835;SDS011;66719;51.226;6.902;2023-09-07T03:49:55;12.00;;;4.60;;
4835;SDS011;66719;51.226;6.902;2023-09-07T03:52:23;13.13;;;3.87;;
4835;SDS011;66719;51.226;6.902;2023-09-07T03:54:51;13.03;;;4.20;;
4835;SDS011;66719;51.226;6.902;2023-09-07T03:57:18;14.13;;;4.50;;
4835;SDS011;66719;51.226;6.902;2023-09-07T03:59:46;11.50;;;4.53;;
4835;SDS011;66719;51.226;6.902;2023-09-07T04:02:13;13.40;;;4.17;;
4835;SDS011;66719;51.226;6.902;2023-09-07T04:04:41;13.17;;;4.00;;
4835;SDS011;66719;51.226;6.902;2023-09-07T04:07:07;13.27;;;3.97;;
4835;SDS011;66719;51.226;6.902;2023-09-07T04:09:34;12.10;;;4.27;;
4835;SDS011;66719;51.226;6.902;2023-09-07T04:12:01;10.37;;;3.60;;
4835;SDS011;66719;51.226;6.902;2023-09-07T04:14:30;14.83;;;4.20;;
4835;SDS011;66719;51.226;6.902;2023-09-07T04:16:56;13.73;;;4.07;;
4835;SDS011;66719;51.226;6.902;2023-09-07T04:19:23;11.77;;;4.53;;
4835;SDS011;66719;51.226;6.902;2023-09-07T04:21:50;13.30;;;4.33;;
4835;SDS011;66719;51.226;6.902;2023-09-07T04:24:17;10.53;;;4.03;;
4835;SDS011;66719;51.226;6.902;2023-09-07T04:26:44;15.20;;;4.40;;
4835;SDS011;66719;51.226;6.902;2023-09-07T04:29:11;12.10;;;4.70;;
4835;SDS011;66719;51.226;6.902;2023-09-07T04:31:40;12.90;;;4.43;;
4835;SDS011;66719;51.226;6.902;2023-09-07T04:34:07;12.10;;;4.30;;
4835;SDS011;66719;51.226;6.902;2023-09-07T04:36:34;11.23;;;4.03;;
4835;SDS011;66719;51.226;6.902;2023-09-07T04:39:00;13.30;;;4.80;;
4835;SDS011;66719;51.226;6.902;2023-09-07T04:41:29;17.60;;;7.30;;
4835;SDS011;66719;51.226;6.902;2023-09-07T04:43:56;22.97;;;13.10;;
4835;SDS011;66719;51.226;6.902;2023-09-07T04:46:23;11.80;;;4.70;;
4835;SDS011;66719;51.226;6.902;2023-09-07T04:48:50;18.03;;;4.00;;
4835;SDS011;66719;51.226;6.902;2023-09-07T04:51:16;10.60;;;4.20;;
4835;SDS011;66719;51.226;6.902;2023-09-07T04:53:43;12.47;;;4.20;;
4835;SDS011;66719;51.226;6.902;2023-09-07T04:56:10;10.53;;;3.90;;
4835;SDS011;66719;51.226;6.902;2023-09-07T04:58:36;12.80;;;4.00;;
4835;SDS011;66719;51.226;6.902;2023-09-07T05:01:03;10.57;;;4.17;;
4835;SDS011;66719;51.226;6.902;2023-09-07T05:03:31;10.70;;;4.00;;
4835;SDS011;66719;51.226;6.902;2023-09-07T05:05:57;10.53;;;4.00;;
4835;SDS011;66719;51.226;6.902;2023-09-07T05:08:24;10.07;;;4.03;;
4835;SDS011;66719;51.226;6.902;2023-09-07T05:11:09;14.20;;;4.37;;
4835;SDS011;66719;51.226;6.902;2023-09-07T05:13:36;10.50;;;4.33;;
4835;SDS011;66719;51.226;6.902;2023-09-07T05:16:03;9.87;;;3.83;;
4835;SDS011;66719;51.226;6.902;2023-09-07T05:18:31;13.80;;;4.90;;
4835;SDS011;66719;51.226;6.902;2023-09-07T05:20:58;11.00;;;4.30;;
4835;SDS011;66719;51.226;6.902;2023-09-07T05:23:25;12.27;;;4.27;;
4835;SDS011;66719;51.226;6.902;2023-09-07T05:25:53;12.70;;;4.97;;
4835;SDS011;66719;51.226;6.902;2023-09-07T05:28:21;13.20;;;4.80;;
4835;SDS011;66719;51.226;6.902;2023-09-07T05:30:48;11.03;;;4.63;;
4835;SDS011;66719;51.226;6.902;2023-09-07T05:33:16;11.10;;;4.70;;
4835;SDS011;66719;51.226;6.902;2023-09-07T05:35:44;9.80;;;4.20;;
4835;SDS011;66719;51.226;6.902;2023-09-07T05:38:12;14.73;;;4.60;;
4835;SDS011;66719;51.226;6.902;2023-09-07T05:40:40;14.10;;;5.03;;
4835;SDS011;66719;51.226;6.902;2023-09-07T05:43:07;16.53;;;5.10;;
4835;SDS011;66719;51.226;6.902;2023-09-07T05:45:35;11.07;;;4.57;;
4835;SDS011;66719;51.226;6.902;2023-09-07T05:48:03;13.23;;;5.30;;
4835;SDS011;66719;51.226;6.902;2023-09-07T05:50:31;13.43;;;4.93;;
4835;SDS011;66719;51.226;6.902;2023-09-07T05:52:59;11.67;;;4.90;;
4835;SDS011;66719;51.226;6.902;2023-09-07T05:55:26;14.60;;;4.70;;
4835;SDS011;66719;51.226;6.902;2023-09-07T05:57:55;16.77;;;5.40;;
4835;SDS011;66719;51.226;6.902;2023-09-07T06:00:23;15.77;;;5.40;;
4835;SDS011;66719;51.226;6.902;2023-09-07T06:02:50;16.23;;;5.20;;
4835;SDS011;66719;51.226;6.902;2023-09-07T06:05:17;15.77;;;4.60;;
4835;SDS011;66719;51.226;6.902;2023-09-07T06:07:44;12.83;;;4.97;;
4835;SDS011;66719;51.226;6.902;2023-09-07T06:10:11;16.43;;;5.23;;
4835;SDS011;66719;51.226;6.902;2023-09-07T06:12:38;18.07;;;5.27;;
4835;SDS011;66719;51.226;6.902;2023-09-07T06:15:04;13.13;;;5.10;;
4835;SDS011;66719;51.226;6.902;2023-09-07T06:17:31;13.30;;;5.23;;
4835;SDS011;66719;51.226;6.902;2023-09-07T06:19:58;12.30;;;4.80;;
4835;SDS011;66719;51.226;6.902;2023-09-07T06:22:25;15.90;;;4.90;;
4835;SDS011;66719;51.226;6.902;2023-09-07T06:24:51;15.77;;;5.30;;
4835;SDS011;66719;51.226;6.902;2023-09-07T06:27:18;14.27;;;5.57;;
4835;SDS011;66719;51.226;6.902;2023-09-07T06:29:44;16.83;;;5.80;;
4835;SDS011;66719;51.226;6.902;2023-09-07T06:32:11;12.20;;;5.17;;
4835;SDS011;66719;51.226;6.902;2023-09-07T06:34:38;15.27;;;6.10;;
4835;SDS011;66719;51.226;6.902;2023-09-07T06:37:06;18.40;;;5.30;;
4835;SDS011;66719;51.226;6.902;2023-09-07T06:39:32;13.63;;;5.70;;
4835;SDS011;66719;51.226;6.902;2023-09-07T06:41:59;13.00;;;5.53;;
4835;SDS011;66719;51.226;6.902;2023-09-07T06:44:26;23.13;;;7.83;;
4835;SDS011;66719;51.226;6.902;2023-09-07T06:46:53;15.03;;;5.57;;
4835;SDS011;66719;51.226;6.902;2023-09-07T06:49:19;16.33;;;6.90;;
4835;SDS011;66719;51.226;6.902;2023-09-07T06:51:46;16.70;;;6.80;;
4835;SDS011;66719;51.226;6.902;2023-09-07T06:54:13;19.97;;;7.37;;
4835;SDS011;66719;51.226;6.902;2023-09-07T06:56:40;18.73;;;6.40;;
4835;SDS011;66719;51.226;6.902;2023-09-07T06:59:06;15.57;;;7.43;;
4835;SDS011;66719;51.226;6.902;2023-09-07T07:01:33;16.10;;;7.27;;
4835;SDS011;66719;51.226;6.902;2023-09-07T07:03:59;24.10;;;8.20;;
4835;SDS011;66719;51.226;6.902;2023-09-07T07:06:26;20.33;;;9.00;;
4835;SDS011;66719;51.226;6.902;2023-09-07T07:08:53;21.37;;;9.07;;
4835;SDS011;66719;51.226;6.902;2023-09-07T07:11:19;19.57;;;7.77;;
4835;SDS011;66719;51.226;6.902;2023-09-07T07:13:46;16.90;;;8.43;;
4835;SDS011;66719;51.226;6.902;2023-09-07T07:16:13;19.40;;;8.17;;
4835;SDS011;66719;51.226;6.902;2023-09-07T07:18:40;19.93;;;9.50;;
4835;SDS011;66719;51.226;6.902;2023-09-07T07:21:09;21.00;;;10.30;;
4835;SDS011;66719;51.226;6.902;2023-09-07T07:23:36;21.60;;;10.00;;
4835;SDS011;66719;51.226;6.902;2023-09-07T07:26:02;16.03;;;7.93;;
4835;SDS011;66719;51.226;6.902;2023-09-07T07:28:30;19.63;;;8.93;;
4835;SDS011;66719;51.226;6.902;2023-09-07T07:30:56;24.63;;;7.47;;
4835;SDS011;66719;51.226;6.902;2023-09-07T07:33:23;16.27;;;6.50;;
4835;SDS011;66719;51.226;6.902;2023-09-07T07:35:50;11.83;;;5.40;;
4835;SDS011;66719;51.226;6.902;2023-09-07T07:38:17;21.40;;;8.93;;
4835;SDS011;66719;51.226;6.902;2023-09-07T07:40:43;15.07;;;7.77;;
4835;SDS011;66719;51.226;6.902;2023-09-07T07:43:11;22.23;;;7.83;;
4835;SDS011;66719;51.226;6.902;2023-09-07T07:45:39;12.93;;;6.40;;
4835;SDS011;66719;51.226;6.902;2023-09-07T07:48:06;13.80;;;6.80;;
4835;SDS011;66719;51.226;6.902;2023-09-07T07:50:40;17.20;;;6.10;;
4835;SDS011;66719;51.226;6.902;2023-09-07T07:53:07;17.00;;;7.00;;
4835;SDS011;66719;51.226;6.902;2023-09-07T07:55:35;13.87;;;6.33;;
4835;SDS011;66719;51.226;6.902;2023-09-07T07:58:05;16.53;;;8.07;;
4835;SDS011;66719;51.226;6.902;2023-09-07T08:00:36;20.73;;;9.33;;
4835;SDS011;66719;51.226;6.902;2023-09-07T08:03:04;16.73;;;7.70;;
4835;SDS011;66719;51.226;6.902;2023-09-07T08:05:34;14.90;;;5.57;;
4835;SDS011;66719;51.226;6.902;2023-09-07T08:08:01;12.17;;;5.47;;
4835;SDS011;66719;51.226;6.902;2023-09-07T08:10:28;14.20;;;5.30;;
4835;SDS011;66719;51.226;6.902;2023-09-07T08:12:57;11.60;;;5.07;;
4835;SDS011;66719;51.226;6.902;2023-09-07T08:15:24;11.70;;;5.63;;
4835;SDS011;66719;51.226;6.902;2023-09-07T08:17:51;13.37;;;6.43;;
4835;SDS011;66719;51.226;6.902;2023-09-07T08:20:19;19.70;;;9.70;;
4835;SDS011;66719;51.226;6.902;2023-09-07T08:22:46;15.70;;;6.10;;
4835;SDS011;66719;51.226;6.902;2023-09-07T08:25:13;15.53;;;5.20;;
4835;SDS011;66719;51.226;6.902;2023-09-07T08:27:40;14.57;;;5.50;;
4835;SDS011;66719;51.226;6.902;2023-09-07T08:30:12;20.03;;;9.40;;
4835;SDS011;66719;51.226;6.902;2023-09-07T08:32:44;11.17;;;5.10;;
4835;SDS011;66719;51.226;6.902;2023-09-07T08:35:14;14.20;;;5.43;;
4835;SDS011;66719;51.226;6.902;2023-09-07T08:37:43;26.00;;;9.90;;
4835;SDS011;66719;51.226;6.902;2023-09-07T08:40:09;17.30;;;8.50;;
4835;SDS011;66719;51.226;6.902;2023-09-07T08:42:38;14.23;;;7.40;;
4835;SDS011;66719;51.226;6.902;2023-09-07T08:45:05;15.50;;;5.50;;
4835;SDS011;66719;51.226;6.902;2023-09-07T08:47:35;11.37;;;5.40;;
4835;SDS011;66719;51.226;6.902;2023-09-07T08:50:04;10.07;;;4.77;;
4835;SDS011;66719;51.226;6.902;2023-09-07T08:52:34;15.77;;;7.00;;
4835;SDS011;66719;51.226;6.902;2023-09-07T08:55:02;24.50;;;11.30;;
4835;SDS011;66719;51.226;6.902;2023-09-07T08:57:32;14.17;;;6.30;;
4835;SDS011;66719;51.226;6.902;2023-09-07T08:59:59;16.60;;;7.00;;
4835;SDS011;66719;51.226;6.902;2023-09-07T09:02:25;15.20;;;6.43;;
4835;SDS011;66719;51.226;6.902;2023-09-07T09:04:53;10.63;;;4.67;;
4835;SDS011;66719;51.226;6.902;2023-09-07T09:07:20;13.00;;;5.20;;
4835;SDS011;66719;51.226;6.902;2023-09-07T09:09:48;10.00;;;4.70;;
4835;SDS011;66719;51.226;6.902;2023-09-07T09:12:16;14.93;;;5.30;;
4835;SDS011;66719;51.226;6.902;2023-09-07T09:14:44;12.40;;;4.77;;
4835;SDS011;66719;51.226;6.902;2023-09-07T09:17:12;12.20;;;5.10;;
4835;SDS011;66719;51.226;6.902;2023-09-07T09:19:40;11.37;;;3.93;;
4835;SDS011;66719;51.226;6.902;2023-09-07T09:22:08;14.00;;;4.70;;
4835;SDS011;66719;51.226;6.902;2023-09-07T09:24:35;12.60;;;5.63;;
4835;SDS011;66719;51.226;6.902;2023-09-07T09:27:02;14.40;;;7.00;;
4835;SDS011;66719;51.226;6.902;2023-09-07T09:29:33;16.73;;;6.53;;
4835;SDS011;66719;51.226;6.902;2023-09-07T09:32:04;11.67;;;5.00;;
4835;SDS011;66719;51.226;6.902;2023-09-07T09:34:35;12.43;;;4.83;;
4835;SDS011;66719;51.226;6.902;2023-09-07T09:37:03;12.03;;;5.00;;
4835;SDS011;66719;51.226;6.902;2023-09-07T09:39:30;9.80;;;4.10;;
4835;SDS011;66719;51.226;6.902;2023-09-07T09:41:56;10.87;;;4.60;;
4835;SDS011;66719;51.226;6.902;2023-09-07T09:44:24;11.83;;;4.93;;
4835;SDS011;66719;51.226;6.902;2023-09-07T09:46:52;11.37;;;4.37;;
4835;SDS011;66719;51.226;6.902;2023-09-07T09:49:22;10.10;;;4.50;;
4835;SDS011;66719;51.226;6.902;2023-09-07T09:51:49;12.07;;;5.23;;
4835;SDS011;66719;51.226;6.902;2023-09-07T09:54:20;10.43;;;5.00;;
4835;SDS011;66719;51.226;6.902;2023-09-07T09:56:48;14.57;;;5.10;;
4835;SDS011;66719;51.226;6.902;2023-09-07T09:59:15;12.63;;;5.50;;
4835;SDS011;66719;51.226;6.902;2023-09-07T10:01:46;12.43;;;5.70;;
4835;SDS011;66719;51.226;6.902;2023-09-07T10:04:15;12.87;;;5.80;;
4835;SDS011;66719;51.226;6.902;2023-09-07T10:06:50;14.70;;;5.80;;
4835;SDS011;66719;51.226;6.902;2023-09-07T10:09:21;13.63;;;4.63;;
4835;SDS011;66719;51.226;6.902;2023-09-07T10:11:51;16.60;;;5.40;;
4835;SDS011;66719;51.226;6.902;2023-09-07T10:14:20;12.80;;;4.17;;
4835;SDS011;66719;51.226;6.902;2023-09-07T10:16:51;13.40;;;4.50;;
4835;SDS011;66719;51.226;6.902;2023-09-07T10:19:24;9.67;;;3.80;;
4835;SDS011;66719;51.226;6.902;2023-09-07T10:21:53;10.17;;;4.33;;
4835;SDS011;66719;51.226;6.902;2023-09-07T10:24:31;12.67;;;4.90;;
4835;SDS011;66719;51.226;6.902;2023-09-07T10:27:06;11.47;;;5.33;;
4835;SDS011;66719;51.226;6.902;2023-09-07T10:29:43;10.70;;;4.10;;
4835;SDS011;66719;51.226;6.902;2023-09-07T10:32:12;15.30;;;5.27;;
4835;SDS011;66719;51.226;6.902;2023-09-07T10:34:45;11.07;;;4.57;;
4835;SDS011;66719;51.226;6.902;2023-09-07T10:37:12;12.07;;;4.33;;
4835;SDS011;66719;51.226;6.902;2023-09-07T10:39:40;11.73;;;4.60;;
4835;SDS011;66719;51.226;6.902;2023-09-07T10:42:22;12.33;;;4.87;;
4835;SDS011;66719;51.226;6.902;2023-09-07T10:44:50;11.17;;;4.10;;
4835;SDS011;66719;51.226;6.902;2023-09-07T10:47:17;10.40;;;3.77;;
4835;SDS011;66719;51.226;6.902;2023-09-07T10:49:44;9.87;;;3.93;;
4835;SDS011;66719;51.226;6.902;2023-09-07T10:52:11;10.47;;;4.57;;
4835;SDS011;66719;51.226;6.902;2023-09-07T10:54:37;12.33;;;4.20;;
4835;SDS011;66719;51.226;6.902;2023-09-07T10:57:11;12.20;;;4.47;;
4835;SDS011;66719;51.226;6.902;2023-09-07T10:59:44;12.83;;;4.37;;
4835;SDS011;66719;51.226;6.902;2023-09-07T11:02:13;10.50;;;3.73;;
4835;SDS011;66719;51.226;6.902;2023-09-07T11:04:42;13.17;;;4.23;;
4835;SDS011;66719;51.226;6.902;2023-09-07T11:07:08;14.77;;;4.70;;
4835;SDS011;66719;51.226;6.902;2023-09-07T11:09:39;10.83;;;4.57;;
4835;SDS011;66719;51.226;6.902;2023-09-07T11:12:13;11.07;;;4.40;;
4835;SDS011;66719;51.226;6.902;2023-09-07T11:14:42;12.57;;;4.97;;
4835;SDS011;66719;51.226;6.902;2023-09-07T11:17:09;12.00;;;4.93;;
4835;SDS011;66719;51.226;6.902;2023-09-07T11:19:36;10.00;;;4.20;;
4835;SDS011;66719;51.226;6.902;2023-09-07T11:22:03;13.97;;;4.43;;
4835;SDS011;66719;51.226;6.902;2023-09-07T11:24:31;9.83;;;3.80;;
4835;SDS011;66719;51.226;6.902;2023-09-07T11:26:58;13.77;;;4.17;;
4835;SDS011;66719;51.226;6.902;2023-09-07T11:29:25;10.00;;;3.90;;
4835;SDS011;66719;51.226;6.902;2023-09-07T11:31:52;10.30;;;4.23;;
4835;SDS011;66719;51.226;6.902;2023-09-07T11:34:19;15.20;;;5.83;;
4835;SDS011;66719;51.226;6.902;2023-09-07T11:36:45;14.53;;;5.00;;
4835;SDS011;66719;51.226;6.902;2023-09-07T11:39:12;11.80;;;4.40;;
4835;SDS011;66719;51.226;6.902;2023-09-07T11:41:40;10.70;;;4.07;;
4835;SDS011;66719;51.226;6.902;2023-09-07T11:44:08;11.97;;;4.30;;
4835;SDS011;66719;51.226;6.902;2023-09-07T11:46:35;11.37;;;4.10;;
4835;SDS011;66719;51.226;6.902;2023-09-07T11:49:03;14.57;;;3.70;;
4835;SDS011;66719;51.226;6.902;2023-09-07T11:51:31;9.97;;;3.33;;
4835;SDS011;66719;51.226;6.902;2023-09-07T11:53:58;9.80;;;3.90;;
4835;SDS011;66719;51.226;6.902;2023-09-07T11:56:25;10.20;;;3.80;;
4835;SDS011;66719;51.226;6.902;2023-09-07T11:58:53;11.00;;;4.33;;
4835;SDS011;66719;51.226;6.902;2023-09-07T12:01:19;10.47;;;4.40;;
4835;SDS011;66719;51.226;6.902;2023-09-07T12:03:46;11.43;;;4.10;;
4835;SDS011;66719;51.226;6.902;2023-09-07T12:06:13;9.60;;;3.57;;
4835;SDS011;66719;51.226;6.902;2023-09-07T12:08:57;10.40;;;3.63;;
4835;SDS011;66719;51.226;6.902;2023-09-07T12:11:25;10.93;;;3.97;;
4835;SDS011;66719;51.226;6.902;2023-09-07T12:13:51;10.50;;;3.97;;
4835;SDS011;66719;51.226;6.902;2023-09-07T12:16:18;9.77;;;3.77;;
4835;SDS011;66719;51.226;6.902;2023-09-07T12:18:45;9.50;;;4.10;;
4835;SDS011;66719;51.226;6.902;2023-09-07T12:21:11;10.93;;;4.10;;
4835;SDS011;66719;51.226;6.902;2023-09-07T12:23:38;13.23;;;3.67;;
4835;SDS011;66719;51.226;6.902;2023-09-07T12:26:04;14.30;;;3.60;;
4835;SDS011;66719;51.226;6.902;2023-09-07T12:28:32;12.23;;;4.07;;
4835;SDS011;66719;51.226;6.902;2023-09-07T12:30:58;24.27;;;4.47;;
4835;SDS011;66719;51.226;6.902;2023-09-07T12:33:25;9.50;;;3.87;;
4835;SDS011;66719;51.226;6.902;2023-09-07T12:35:51;10.30;;;3.63;;
4835;SDS011;66719;51.226;6.902;2023-09-07T12:38:18;11.00;;;4.07;;
4835;SDS011;66719;51.226;6.902;2023-09-07T12:40:47;10.37;;;4.60;;
4835;SDS011;66719;51.226;6.902;2023-09-07T12:43:14;12.13;;;4.90;;
4835;SDS011;66719;51.226;6.902;2023-09-07T12:45:40;11.07;;;3.90;;
4835;SDS011;66719;51.226;6.902;2023-09-07T12:48:09;11.13;;;4.00;;
4835;SDS011;66719;51.226;6.902;2023-09-07T12:50:36;10.83;;;4.03;;
4835;SDS011;66719;51.226;6.902;2023-09-07T12:53:02;10.83;;;3.90;;
4835;SDS011;66719;51.226;6.902;2023-09-07T12:55:29;9.30;;;3.73;;
4835;SDS011;66719;51.226;6.902;2023-09-07T12:57:56;10.80;;;3.50;;
4835;SDS011;66719;51.226;6.902;2023-09-07T13:00:22;9.60;;;3.73;;
4835;SDS011;66719;51.226;6.902;2023-09-07T13:02:49;11.07;;;3.93;;
4835;SDS011;66719;51.226;6.902;2023-09-07T13:05:16;13.23;;;4.07;;
4835;SDS011;66719;51.226;6.902;2023-09-07T13:07:43;10.90;;;4.73;;
4835;SDS011;66719;51.226;6.902;2023-09-07T13:10:10;10.37;;;4.00;;
4835;SDS011;66719;51.226;6.902;2023-09-07T13:12:37;10.80;;;3.80;;
4835;SDS011;66719;51.226;6.902;2023-09-07T13:15:04;11.10;;;4.20;;
4835;SDS011;66719;51.226;6.902;2023-09-07T13:17:31;9.60;;;3.70;;
4835;SDS011;66719;51.226;6.902;2023-09-07T13:19:58;10.70;;;4.63;;
4835;SDS011;66719;51.226;6.902;2023-09-07T13:22:24;22.10;;;4.30;;
4835;SDS011;66719;51.226;6.902;2023-09-07T13:24:51;12.77;;;4.27;;
4835;SDS011;66719;51.226;6.902;2023-09-07T13:27:18;11.17;;;4.03;;
4835;SDS011;66719;51.226;6.902;2023-09-07T13:29:45;9.27;;;3.70;;
4835;SDS011;66719;51.226;6.902;2023-09-07T13:32:11;12.37;;;4.77;;
4835;SDS011;66719;51.226;6.902;2023-09-07T13:34:39;14.33;;;4.90;;
4835;SDS011;66719;51.226;6.902;2023-09-07T13:37:05;12.93;;;4.67;;
4835;SDS011;66719;51.226;6.902;2023-09-07T13:39:32;14.57;;;4.20;;
4835;SDS011;66719;51.226;6.902;2023-09-07T13:41:58;16.37;;;6.63;;
4835;SDS011;66719;51.226;6.902;2023-09-07T13:44:25;12.47;;;5.47;;
4835;SDS011;66719;51.226;6.902;2023-09-07T13:46:51;14.00;;;6.63;;
4835;SDS011;66719;51.226;6.902;2023-09-07T13:49:20;13.87;;;4.70;;
4835;SDS011;66719;51.226;6.902;2023-09-07T13:51:47;12.80;;;5.17;;
4835;SDS011;66719;51.226;6.902;2023-09-07T13:54:14;10.90;;;4.70;;
4835;SDS011;66719;51.226;6.902;2023-09-07T13:56:40;15.43;;;4.80;;
4835;SDS011;66719;51.226;6.902;2023-09-07T13:59:08;10.23;;;4.10;;
4835;SDS011;66719;51.226;6.902;2023-09-07T14:01:35;13.80;;;3.77;;
4835;SDS011;66719;51.226;6.902;2023-09-07T14:04:01;11.53;;;4.50;;
4835;SDS011;66719;51.226;6.902;2023-09-07T14:06:28;10.13;;;4.07;;
4835;SDS011;66719;51.226;6.902;2023-09-07T14:08:54;12.73;;;4.30;;
4835;SDS011;66719;51.226;6.902;2023-09-07T14:11:21;10.40;;;4.27;;
4835;SDS011;66719;51.226;6.902;2023-09-07T14:13:49;10.50;;;4.17;;
4835;SDS011;66719;51.226;6.902;2023-09-07T14:16:18;11.27;;;4.50;;
4835;SDS011;66719;51.226;6.902;2023-09-07T14:18:46;11.37;;;4.87;;
4835;SDS011;66719;51.226;6.902;2023-09-07T14:21:14;17.40;;;7.03;;
4835;SDS011;66719;51.226;6.902;2023-09-07T14:23:41;14.27;;;6.20;;
4835;SDS011;66719;51.226;6.902;2023-09-07T14:26:08;12.23;;;5.90;;
4835;SDS011;66719;51.226;6.902;2023-09-07T14:28:35;15.20;;;5.97;;
4835;SDS011;66719;51.226;6.902;2023-09-07T14:31:04;12.40;;;4.40;;
4835;SDS011;66719;51.226;6.902;2023-09-07T14:33:33;13.90;;;4.83;;
4835;SDS011;66719;51.226;6.902;2023-09-07T14:36:03;14.13;;;4.70;;
4835;SDS011;66719;51.226;6.902;2023-09-07T14:38:29;10.60;;;4.60;;
4835;SDS011;66719;51.226;6.902;2023-09-07T14:40:57;12.40;;;4.63;;
4835;SDS011;66719;51.226;6.902;2023-09-07T14:43:23;12.00;;;4.37;;
4835;SDS011;66719;51.226;6.902;2023-09-07T14:45:50;10.87;;;4.60;;
4835;SDS011;66719;51.226;6.902;2023-09-07T14:48:16;16.03;;;4.27;;
4835;SDS011;66719;51.226;6.902;2023-09-07T14:50:43;16.73;;;5.60;;